• Join FlightAware (Why Join?)
  • Login
  • US Flag 
06:02PM EDT


 

Airport Tracker/Info


-or-


 

Live Flight TrackerFlight Track Log ✈ EJA947 ✈ 12-Apr-2013 ✈ KSMO - KCRQ

Flight Track Log - Related Links

Times and Time Zones

All times are in EDT time to prevent confusion due to time zone crossing. See the EJA947 flight status page for this flight to view local times or setup timezone preferences in your user account.

Time Position Orientation Groundspeed Altitude Reporting Facility
EDT Latitude Longitude Course Direction KTS MPH feet Rate Location/Type
09:29PM 34.0000 -118.4833 253° West 175 201 2,000  Level Southern California TRACON
09:30PM 33.9833 -118.5500 253° West 207 238 4,300 1,980 Climbing Southern California TRACON
09:31PM 33.9594 -118.5953 238° Southwest 210 242 5,700 1,740 Climbing Los Angeles Center
09:32PM 33.8950 -118.6058 188° South 244 281 7,400 1,920 Climbing Los Angeles Center
09:33PM 33.8261 -118.5817 164° South 277 319 9,700 1,740 Climbing Los Angeles Center
09:34PM 33.7475 -118.5581 166° South 297 342 11,100 600 Climbing Los Angeles Center
09:35PM 33.6561 -118.4889 148° Southeast 346 398 11,000 -60 Descending Los Angeles Center
09:36PM 33.5981 -118.3969 127° Southeast 350 403 11,000  Level Los Angeles Center
09:37PM 33.5406 -118.3033 126° Southeast 353 406 11,000  Level Los Angeles Center
09:38PM 33.4886 -118.2178 126° Southeast 316 364 11,000 -420 Level Los Angeles Center
09:39PM 33.4464 -118.1161 116° Southeast 288 331 10,200 -1,200 Descending Los Angeles Center
09:40PM 33.4242 -118.0250 106° East 286 329 8,600 -1,560 Descending Los Angeles Center
09:41PM 33.3981 -117.9378 110° East 282 325 7,000 -1,500 Descending Los Angeles Center
09:42PM 33.3728 -117.8494 109° East 281 323 5,600 -1,020 Descending Los Angeles Center
09:43PM 33.3475 -117.7642 110° East 279 321 5,000 -300 Descending Los Angeles Center
09:44PM 33.3164 -117.6622 110° East 275 316 5,000  Level Los Angeles Center
09:45PM 33.3000 -117.6000 107° East 275 316 5,000  Level Southern California TRACON
09:46PM 33.2667 -117.5167 116° Southeast 266 306 5,000  Level Southern California TRACON
09:47PM 33.2500 -117.4500 107° East 217 250 5,000  Level Southern California TRACON
09:48PM 33.2333 -117.3833 107° East 224 258 5,000  Level Southern California TRACON
09:49PM 33.2333 -117.3167 90° East 221 254 5,000  Level Southern California TRACON
09:50PM 33.2333 -117.2333 90° East 221 254 5,000 -240 Level Southern California TRACON
09:51PM 33.2333 -117.1667 90° East 214 246 4,600 -480 Descending Southern California TRACON
09:52PM 33.2000 -117.1000 121° Southeast 198 228 4,000 -540 Descending Southern California TRACON
09:53PM 33.1500 -117.1000 180° South 196 226 3,500 -900 Descending Southern California TRACON
09:54PM 33.1500 -117.1667 270° West 179 206 2,300 -1,020 Descending Southern California TRACON
09:55PM 33.1333 -117.2000 239° Southwest 136 157 1,600 -780 Descending Southern California TRACON
09:56PM 33.1333 -117.2500 270° West 126 145 800 -780 Descending Southern California TRACON